Currently 62°F in San Jacinto, California, USA
62°F
70°F / 62°F
1 mph S
0.00"
Saturday, June 23, 2018 3:24 AM PDT

San Jacinto, California Weather Summary
Last 36 Hours

Temperature Winds Hourly Humidity Dewpoint
Time Report Norm Report Norm Max Gusts Precip. Rpt. Norm Rpt. Norm Pressure
1,3Sat 03:24 AM  62.1°F  64°F  1 mph S  calm  3 mph  0.00"  85%  61%  57°F  50°F  29.82"
Sat 03:00 AM  63.1°F  65°F  calm  calm  3 mph  0.00"  83%  60%  58°F  50°F  29.83"
Sat 02:00 AM  65.5°F  67°F  1 mph S  calm  3 mph  0.00"  77%  59%  58°F  51°F  29.83"
Sat 01:00 AM  67.5°F  68°F  2 mph S  calm  3 mph  0.00"  72%  57%  58°F  52°F  29.83"
2Sat 12:00 AM  70.0°F  70°F  2 mph S  1 mph  6 mph  0.00"  67%  55%  58°F  52°F  29.85"
Fri 11:00 PM  73.0°F  72°F  3 mph S  1 mph  6 mph  0.00"  56%  50%  56°F  52°F  29.85"
Fri 10:00 PM  75.7°F  74°F  2 mph S  1 mph  5 mph  0.00"  45%  46%  52°F  52°F  29.85"
Fri 09:00 PM  79.5°F  77°F  2 mph S  1 mph  11 mph  0.00"  37%  41%  50°F  50°F  29.84"
Fri 08:00 PM  83.7°F  81°F  4 mph SW  2 mph  16 mph  0.00"  28%  35%  46°F  49°F  29.82"
Fri 07:00 PM  90.0°F  85°F  10 mph SW  4 mph  15 mph  0.00"  29%  28%  52°F  48°F  29.80"
Fri 06:00 PM  95.2°F  89°F  9 mph SW  5 mph  15 mph  0.00"  25%  25%  53°F  47°F  29.79"
Fri 05:00 PM  97.9°F  91°F  7 mph S  6 mph  16 mph  0.00"  25%  22%  55°F  46°F  29.79"
Fri 04:00 PM  98.2°F  92°F  8 mph SW  6 mph  11 mph  0.00"  25%  19%  55°F  43°F  29.81"
Fri 03:00 PM  98.2°F  93°F  4 mph S  5 mph  13 mph  0.00"  26%  18%  56°F  41°F  29.83"
Fri 02:00 PM  95.7°F  93°F  6 mph SW  4 mph  9 mph  0.00"  25%  18%  53°F  42°F  29.85"
Fri 01:00 PM  93.7°F  91°F  3 mph S  3 mph  8 mph  0.00"  24%  20%  50°F  43°F  29.87"
Fri 12:00 PM  90.7°F  88°F  2 mph W  2 mph  6 mph  0.00"  26%  23%  50°F  45°F  29.90"
Fri 11:00 AM  84.4°F  84°F  3 mph W  2 mph  8 mph  0.00"  40%  28%  57°F  47°F  29.92"
Fri 10:00 AM  78.3°F  79°F  2 mph NW  1 mph  3 mph  0.00"  51%  36%  58°F  49°F  29.93"
Fri 09:00 AM  70.2°F  74°F  calm  calm  3 mph  0.00"  69%  45%  59°F  51°F  29.94"
Fri 08:00 AM  63.7°F  69°F  2 mph NW  1 mph  3 mph  0.00"  83%  53%  58°F  50°F  29.93"
Fri 07:00 AM  60.6°F  64°F  calm  calm  none  0.00"  88%  59%  57°F  49°F  29.94"
Fri 06:00 AM  59.9°F  61°F  calm  calm  none  0.00"  86%  64%  56°F  48°F  29.93"
Fri 05:00 AM  61.2°F  62°F  calm  calm  none  0.00"  83%  63%  56°F  49°F  29.92"
Fri 04:00 AM  62.4°F  63°F  calm  calm  none  0.00"  82%  62%  57°F  50°F  29.93"
Fri 03:00 AM  63.5°F  65°F  calm  calm  none  0.00"  80%  61%  57°F  50°F  29.93"
Fri 02:00 AM  65.5°F  66°F  calm  calm  3 mph  0.00"  76%  60%  57°F  51°F  29.93"
Fri 01:00 AM  66.9°F  68°F  calm  calm  7 mph  0.00"  73%  58%  58°F  52°F  29.94"
Fri 12:00 AM  69.1°F  69°F  5 mph W  1 mph  9 mph  0.00"  69%  55%  58°F  52°F  29.94"
Thu 11:00 PM  71.1°F  72°F  1 mph S  1 mph  5 mph  0.00"  65%  51%  58°F  52°F  29.94"
Thu 10:00 PM  73.2°F  74°F  3 mph S  1 mph  6 mph  0.00"  60%  47%  58°F  51°F  29.94"
Thu 09:00 PM  77.2°F  76°F  2 mph S  1 mph  8 mph  0.00"  53%  41%  58°F  50°F  29.93"
Thu 08:00 PM  82.8°F  80°F  5 mph SW  2 mph  11 mph  0.00"  44%  35%  58°F  49°F  29.91"
Thu 07:00 PM  88.5°F  85°F  8 mph SW  4 mph  13 mph  0.00"  35%  29%  56°F  48°F  29.90"
Thu 06:00 PM  92.7°F  88°F  9 mph SW  5 mph  13 mph  0.00"  32%  25%  58°F  47°F  29.88"
Thu 05:00 PM  96.4°F  90°F  8 mph W  6 mph  15 mph  0.00"  26%  23%  55°F  46°F  29.89"
Thu 04:00 PM  96.6°F  92°F  9 mph NW  6 mph  15 mph  0.00"  22%  20%  50°F  43°F  29.89"

  1. Current weather data. No green row appears if the current weather data is also the high or low for the current day.
  2. High temperature for the current day.
  3. Low temperature for the current day.

The San Jacinto, California weather pages are a service of WeatherCurrents. San Jacinto is located in the heart of the San Jacinto Valley, near Hemet, the Soboba Casino, and at the foot of the San Jacinto Mountains.
Copyright ©Sat Jun 23 03:25:52 PDT 2018  WeatherCurrents. All rights reserved. - Submit questions and comments - Privacy Policy

This page automatically refreshes every 10 minutes.